Time;durP1;ratioP1;P1;durP2;ratioP2;P2;SDS_P1;SDS_P2;PMS_P1;PMS_P2;Temp;Humidity;BMP_temperature;BMP_pressure;BME280_temperature;BME280_humidity;BME280_pressure;Samples;Min_cycle;Max_cycle;Signal;HPM_P1;HPM_P2
2023/12/09 00:00:19;;;;;;;8.97;4.23;;;;;;;6.49;100.00;147803.56;5006398;28;20224;-59
2023/12/09 00:02:46;;;;;;;8.07;3.60;;;;;;;6.50;100.00;147806.06;5003503;28;20220;-59
2023/12/09 00:05:12;;;;;;;9.53;3.60;;;;;;;6.40;100.00;147782.47;5005315;28;20244;-59
2023/12/09 00:07:39;;;;;;;8.03;3.70;;;;;;;6.42;100.00;147787.44;5003818;28;21186;-59
2023/12/09 00:10:05;;;;;;;9.67;2.90;;;;;;;6.40;100.00;147782.47;5006207;28;20314;-59
2023/12/09 00:12:32;;;;;;;9.87;3.73;;;;;;;6.36;100.00;147772.56;5004873;28;20220;-59
2023/12/09 00:15:00;;;;;;;9.90;3.00;;;;;;;6.36;100.00;147772.56;5003038;28;20235;-60
2023/12/09 00:17:27;;;;;;;12.07;5.87;;;;;;;6.29;100.00;147756.44;5006322;28;20220;-60
2023/12/09 00:19:54;;;;;;;18.30;7.20;;;;;;;6.41;100.00;147784.97;5003653;28;20223;-57
2023/12/09 00:22:21;;;;;;;9.50;2.53;;;;;;;6.58;100.00;147825.94;5005980;28;20231;-59
2023/12/09 00:24:47;;;;;;;20.53;6.77;;;;;;;6.70;100.00;147853.25;4993936;28;20220;-59
2023/12/09 00:27:14;;;;;;;11.63;2.63;;;;;;;6.74;100.00;147864.47;5005703;28;20232;-59
2023/12/09 00:29:40;;;;;;;9.90;2.67;;;;;;;6.82;100.00;147881.88;4985083;28;20664;-60
2023/12/09 00:32:09;;;;;;;18.03;5.57;;;;;;;6.84;100.00;147886.84;5004977;28;20232;-59
2023/12/09 00:34:35;;;;;;;24.57;9.43;;;;;;;6.98;100.00;147921.56;5005682;28;20247;-59
2023/12/09 00:37:02;;;;;;;17.87;4.57;;;;;;;7.02;100.00;147930.28;5002611;28;20240;-59
2023/12/09 00:39:28;;;;;;;14.33;4.73;;;;;;;7.02;100.00;147930.28;5005792;28;20228;-59
2023/12/09 00:41:55;;;;;;;10.17;2.63;;;;;;;7.05;100.00;147937.75;5002381;28;20228;-59
2023/12/09 00:44:22;;;;;;;11.47;2.37;;;;;;;7.01;100.00;147927.81;5004970;28;20220;-59
2023/12/09 00:46:49;;;;;;;10.50;2.57;;;;;;;6.98;100.00;147921.56;5002775;28;20786;-60
2023/12/09 00:49:17;;;;;;;12.13;4.20;;;;;;;6.98;100.00;147921.56;4996422;28;20330;-59
2023/12/09 00:51:43;;;;;;;11.97;3.43;;;;;;;6.90;100.00;147902.97;5002860;28;20646;-59
2023/12/09 00:54:10;;;;;;;8.73;3.30;;;;;;;6.91;100.00;147905.44;5005296;28;20236;-59
2023/12/09 00:56:36;;;;;;;10.80;2.97;;;;;;;6.91;100.00;147905.44;5002990;28;20711;-63
2023/12/09 00:59:03;;;;;;;30.90;11.87;;;;;;;6.90;100.00;147901.69;5005468;28;20774;-59
2023/12/09 01:01:30;;;;;;;22.97;11.63;;;;;;;6.92;100.00;147906.66;5004626;28;20240;-60
2023/12/09 01:03:56;;;;;;;16.13;7.30;;;;;;;6.89;100.00;147900.47;4984384;28;20241;-60
2023/12/09 01:06:25;;;;;;;13.90;5.23;;;;;;;6.87;100.00;147895.50;5004549;28;20243;-59
2023/12/09 01:08:51;;;;;;;13.60;3.90;;;;;;;6.91;100.00;147905.44;5002361;28;20762;-59
2023/12/09 01:11:18;;;;;;;16.37;5.23;;;;;;;6.92;100.00;147907.94;5005057;28;20243;-59
2023/12/09 01:13:45;;;;;;;15.33;7.33;;;;;;;6.95;100.00;147914.13;5002237;28;20560;-59
2023/12/09 01:16:11;;;;;;;15.83;8.90;;;;;;;6.72;100.00;147858.22;5004752;28;20239;-60
2023/12/09 01:18:38;;;;;;;18.00;9.13;;;;;;;6.63;100.00;147837.13;5002911;28;20583;-59
2023/12/09 01:21:05;;;;;;;23.93;10.20;;;;;;;6.46;100.00;147797.41;5004434;28;20243;-58
2023/12/09 01:23:33;;;;;;;23.87;10.53;;;;;;;6.30;100.00;147757.66;5004661;28;20759;-57
2023/12/09 01:26:00;;;;;;;16.70;9.87;;;;;;;6.27;100.00;147750.19;5001818;28;20280;-58
2023/12/09 01:28:26;;;;;;;21.10;11.10;;;;;;;6.19;100.00;147731.59;5004991;28;20235;-58
2023/12/09 01:30:53;;;;;;;20.50;11.63;;;;;;;6.15;100.00;147722.88;5000825;28;20718;-59
2023/12/09 01:33:19;;;;;;;22.53;11.87;;;;;;;6.11;100.00;147711.72;5004387;28;20248;-57
2023/12/09 01:35:46;;;;;;;20.50;10.63;;;;;;;6.09;100.00;147707.97;5001813;28;20251;-58
2023/12/09 01:38:13;;;;;;;18.73;10.50;;;;;;;6.04;100.00;147695.56;5004873;28;20761;-58
2023/12/09 01:40:41;;;;;;;21.13;10.80;;;;;;;6.05;100.00;147698.03;5001862;28;20232;-55
2023/12/09 01:43:10;;;;;;;18.30;10.70;;;;;;;5.96;100.00;147676.91;5004634;28;20220;-58
2023/12/09 01:45:36;;;;;;;17.23;9.77;;;;;;;6.02;100.00;147691.84;5004517;28;20694;-57
2023/12/09 01:48:03;;;;;;;17.33;10.57;;;;;;;5.91;100.00;147665.72;5002348;28;20730;-59
2023/12/09 01:50:31;;;;;;;16.57;9.47;;;;;;;5.94;100.00;147671.94;5004846;28;20232;-58
2023/12/09 01:52:58;;;;;;;19.97;9.67;;;;;;;5.88;100.00;147658.25;5001550;28;20326;-58
2023/12/09 01:55:25;;;;;;;17.90;9.70;;;;;;;5.90;100.00;147662.00;5004975;28;20302;-58
2023/12/09 01:57:54;;;;;;;21.03;7.77;;;;;;;5.89;100.00;147659.53;4993147;28;20244;-58
2023/12/09 02:00:21;;;;;;;16.50;9.00;;;;;;;5.85;100.00;147649.59;5004688;28;20225;-58
2023/12/09 02:02:48;;;;;;;23.70;9.43;;;;;;;5.84;100.00;147647.09;5000773;28;20228;-61
2023/12/09 02:05:15;;;;;;;25.83;11.27;;;;;;;5.82;100.00;147642.16;5002547;28;20233;-59
2023/12/09 02:07:44;;;;;;;19.17;10.30;;;;;;;5.76;100.00;147629.72;4952867;28;20232;-59
2023/12/09 02:10:11;;;;;;;20.03;9.93;;;;;;;5.72;100.00;147619.78;4888252;28;20288;-59
2023/12/09 02:13:13;;;;;;;14.10;5.90;;;;;;;5.82;100.00;147643.41;4941464;28;20235;-58
2023/12/09 02:15:42;;;;;;;13.30;4.57;;;;;;;5.86;100.00;147652.06;4930864;28;20227;-58
2023/12/09 02:18:09;;;;;;;13.27;4.13;;;;;;;5.87;100.00;147654.56;4985795;28;20244;-59
2023/12/09 02:20:37;;;;;;;12.07;4.27;;;;;;;6.02;100.00;147691.84;4944514;28;20304;-58
2023/12/09 02:23:08;;;;;;;8.60;3.30;;;;;;;6.18;100.00;147729.09;4996054;28;20240;-59
2023/12/09 02:25:37;;;;;;;9.37;2.70;;;;;;;6.28;100.00;147752.69;5007867;28;20232;-59
2023/12/09 02:28:09;;;;;;;10.93;2.47;;;;;;;6.40;100.00;147781.22;5006269;28;20264;-59
2023/12/09 02:30:45;;;;;;;12.87;2.70;;;;;;;6.47;100.00;147798.59;5007161;28;20235;-59
2023/12/09 02:33:12;;;;;;;13.53;3.40;;;;;;;6.52;100.00;147811.03;5005417;28;20254;-58
2023/12/09 02:35:41;;;;;;;16.43;2.60;;;;;;;6.56;100.00;147819.75;5004590;28;20680;-59
2023/12/09 02:38:11;;;;;;;12.27;3.10;;;;;;;6.52;100.00;147809.81;5008158;28;20683;-59
2023/12/09 02:40:38;;;;;;;13.57;2.47;;;;;;;6.48;100.00;147802.38;5005178;28;20224;-59
2023/12/09 02:43:05;;;;;;;9.90;2.23;;;;;;;6.48;100.00;147801.09;5007881;28;20235;-58
2023/12/09 02:45:32;;;;;;;10.53;2.43;;;;;;;6.42;100.00;147786.19;5008113;28;20228;-57
2023/12/09 02:47:59;;;;;;;9.63;2.50;;;;;;;6.38;100.00;147777.50;5005535;28;20255;-63
2023/12/09 02:50:25;;;;;;;11.03;2.57;;;;;;;6.31;100.00;147761.41;5008158;28;20216;-59
2023/12/09 02:52:52;;;;;;;15.17;2.77;;;;;;;6.29;100.00;147755.16;4991795;28;20240;-58
2023/12/09 02:55:20;;;;;;;13.60;2.60;;;;;;;6.19;100.00;147732.81;5004796;28;20664;-59
2023/12/09 02:57:46;;;;;;;9.87;2.53;;;;;;;6.13;100.00;147716.69;5003280;28;20231;-59
2023/12/09 03:00:13;;;;;;;8.73;2.67;;;;;;;6.09;100.00;147707.97;4998983;28;20706;-59
2023/12/09 03:02:40;;;;;;;8.67;2.80;;;;;;;6.07;100.00;147703.00;5005280;28;20247;-58
2023/12/09 03:05:07;;;;;;;8.53;2.30;;;;;;;6.04;100.00;147695.56;5007568;28;20220;-59
2023/12/09 03:07:34;;;;;;;10.60;2.63;;;;;;;6.02;100.00;147691.84;5007235;28;20232;-59
2023/12/09 03:10:00;;;;;;;7.43;2.17;;;;;;;5.98;100.00;147681.88;5005314;28;20243;-59
2023/12/09 03:12:28;;;;;;;6.40;2.13;;;;;;;5.93;100.00;147668.19;5007252;28;20235;-58
2023/12/09 03:14:55;;;;;;;10.00;2.33;;;;;;;5.87;100.00;147654.56;4998935;28;20224;-59
2023/12/09 03:17:22;;;;;;;11.83;2.20;;;;;;;5.81;100.00;147640.94;5007015;28;20224;-59
2023/12/09 03:19:48;;;;;;;10.60;2.13;;;;;;;5.74;100.00;147623.53;5004449;28;20228;-59
2023/12/09 03:22:15;;;;;;;7.17;2.27;;;;;;;5.63;100.00;147597.44;5007213;28;20248;-59
2023/12/09 03:24:42;;;;;;;6.70;2.30;;;;;;;5.55;100.00;147577.59;4993432;28;20235;-59
2023/12/09 03:27:09;;;;;;;11.40;2.57;;;;;;;5.50;100.00;147565.19;5006756;28;20233;-59
2023/12/09 03:29:37;;;;;;;7.90;1.93;;;;;;;5.46;100.00;147557.72;5005552;28;20725;-59
2023/12/09 03:32:05;;;;;;;11.93;2.27;;;;;;;5.47;100.00;147559.00;5000627;28;20608;-59
2023/12/09 03:34:31;;;;;;;13.10;2.80;;;;;;;5.49;100.00;147562.69;5005216;28;20758;-59
2023/12/09 03:36:58;;;;;;;10.83;2.50;;;;;;;5.63;100.00;147596.22;5002214;28;20240;-58
2023/12/09 03:39:25;;;;;;;13.37;2.87;;;;;;;5.77;100.00;147631.00;5005915;28;20224;-59
2023/12/09 03:41:51;;;;;;;6.37;2.43;;;;;;;5.76;100.00;147629.72;5002045;28;20232;-58
2023/12/09 03:44:18;;;;;;;10.07;2.40;;;;;;;5.70;100.00;147614.84;5005239;28;20239;-58
2023/12/09 03:46:46;;;;;;;11.47;2.40;;;;;;;5.80;100.00;147637.19;5002058;28;20223;-58
2023/12/09 03:49:12;;;;;;;15.97;3.33;;;;;;;5.91;100.00;147664.50;5005114;28;20581;-57
2023/12/09 03:51:39;;;;;;;10.50;2.10;;;;;;;6.00;100.00;147685.56;5001364;28;20224;-58
2023/12/09 03:54:05;;;;;;;5.30;1.73;;;;;;;5.95;100.00;147673.16;5004259;28;20224;-58
2023/12/09 03:56:32;;;;;;;11.40;2.40;;;;;;;5.89;100.00;147660.75;5004749;28;20235;-59
2023/12/09 03:58:59;;;;;;;10.83;2.47;;;;;;;5.85;100.00;147650.81;5002054;28;20564;-58
2023/12/09 04:01:26;;;;;;;10.50;1.90;;;;;;;5.80;100.00;147637.19;5001858;28;20279;-59
2023/12/09 04:03:55;;;;;;;11.57;2.43;;;;;;;5.77;100.00;147631.00;5002701;28;20228;-57
2023/12/09 04:06:21;;;;;;;8.47;2.27;;;;;;;5.67;100.00;147607.38;5005042;28;20229;-58
2023/12/09 04:08:48;;;;;;;10.07;2.97;;;;;;;5.67;100.00;147607.38;5002979;28;20224;-58
2023/12/09 04:11:14;;;;;;;8.73;2.13;;;;;;;5.80;100.00;147638.44;5004805;28;20255;-58
2023/12/09 04:13:41;;;;;;;14.20;2.43;;;;;;;6.02;100.00;147691.84;4991061;28;20228;-58
2023/12/09 04:16:08;;;;;;;8.93;1.77;;;;;;;6.08;100.00;147704.28;5004289;28;20247;-59
2023/12/09 04:18:36;;;;;;;8.53;2.30;;;;;;;6.01;100.00;147689.38;5006196;28;20252;-59
2023/12/09 04:21:04;;;;;;;11.00;1.90;;;;;;;6.07;100.00;147703.00;5003513;28;20346;-59
2023/12/09 04:23:31;;;;;;;11.93;2.00;;;;;;;6.08;100.00;147705.50;5005401;28;20247;-59
2023/12/09 04:25:58;;;;;;;9.27;2.33;;;;;;;6.10;100.00;147710.47;5001797;28;20603;-58
2023/12/09 04:28:24;;;;;;;9.90;2.30;;;;;;;6.11;100.00;147712.94;5005361;28;20220;-59
2023/12/09 04:33:45;;;;;;;14.97;2.50;;;;;;;6.28;100.00;147753.94;4979686;28;20252;-59
2023/12/09 04:36:13;;;;;;;9.13;2.20;;;;;;;6.33;100.00;147765.09;5000471;28;20236;-60
2023/12/09 04:38:41;;;;;;;7.17;2.53;;;;;;;6.32;100.00;147763.88;4993986;28;20221;-58
2023/12/09 04:41:07;;;;;;;11.30;2.50;;;;;;;6.22;100.00;147737.78;5001777;28;20243;-59
2023/12/09 04:43:34;;;;;;;13.57;2.80;;;;;;;6.18;100.00;147730.31;5020920;28;20247;-59
2023/12/09 04:46:01;;;;;;;12.17;2.73;;;;;;;6.10;100.00;147709.25;5015544;28;20251;-59
2023/12/09 04:48:27;;;;;;;13.10;2.43;;;;;;;6.09;100.00;147707.97;5019886;28;20310;-58
2023/12/09 04:50:54;;;;;;;9.10;2.27;;;;;;;6.06;100.00;147700.53;5015345;28;20739;-59
2023/12/09 04:53:22;;;;;;;10.33;2.50;;;;;;;6.10;100.00;147710.47;5015801;28;20316;-59
2023/12/09 04:55:49;;;;;;;11.30;2.30;;;;;;;6.11;100.00;147711.72;5016344;28;20228;-59
2023/12/09 04:58:15;;;;;;;7.60;2.27;;;;;;;6.09;100.00;147707.97;5014401;28;20236;-59
2023/12/09 05:00:42;;;;;;;12.47;2.57;;;;;;;6.11;100.00;147712.94;5015944;28;20708;-59
2023/12/09 05:03:08;;;;;;;12.60;2.67;;;;;;;6.17;100.00;147727.84;5015897;28;20723;-58
2023/12/09 05:05:35;;;;;;;8.53;2.77;;;;;;;6.25;100.00;147745.22;5016132;28;20232;-59
2023/12/09 05:08:01;;;;;;;9.27;2.87;;;;;;;6.24;100.00;147744.00;5014671;28;20220;-59
2023/12/09 05:10:30;;;;;;;12.43;2.70;;;;;;;6.25;100.00;147746.50;5019224;28;20231;-58
2023/12/09 05:12:56;;;;;;;16.13;2.67;;;;;;;6.25;100.00;147746.50;5014008;28;20232;-59
2023/12/09 05:15:23;;;;;;;10.90;3.70;;;;;;;6.22;100.00;147737.78;5016420;28;20236;-58
2023/12/09 05:17:50;;;;;;;10.57;3.13;;;;;;;6.19;100.00;147732.81;5012281;28;20224;-58
2023/12/09 05:20:16;;;;;;;13.83;3.60;;;;;;;6.19;100.00;147731.59;5015001;28;20243;-58
2023/12/09 05:22:44;;;;;;;11.47;3.00;;;;;;;6.23;100.00;147741.53;5012212;28;20227;-58
2023/12/09 05:25:11;;;;;;;9.83;2.90;;;;;;;6.29;100.00;147756.44;5018375;28;20233;-59
2023/12/09 05:27:39;;;;;;;8.60;2.77;;;;;;;6.40;100.00;147782.47;5013709;28;20231;-59
2023/12/09 05:30:07;;;;;;;12.70;3.37;;;;;;;6.43;100.00;147788.66;5018084;28;20224;-58
2023/12/09 05:32:34;;;;;;;9.73;3.40;;;;;;;6.43;100.00;147789.94;5016242;28;20590;-59
2023/12/09 05:35:00;;;;;;;11.77;2.90;;;;;;;6.44;100.00;147791.16;5014816;28;20251;-59
2023/12/09 05:37:27;;;;;;;25.07;9.30;;;;;;;6.40;100.00;147781.22;5016169;28;20223;-59
2023/12/09 05:39:53;;;;;;;124.50;80.10;;;;;;;6.40;100.00;147782.47;5018627;28;20231;-59
2023/12/09 05:42:20;;;;;;;62.07;37.13;;;;;;;6.39;100.00;147778.75;5015667;28;20228;-59
2023/12/09 05:44:48;;;;;;;35.87;22.43;;;;;;;6.39;100.00;147778.75;5012413;28;20729;-60
2023/12/09 05:47:14;;;;;;;25.07;19.63;;;;;;;6.42;100.00;147787.44;5018387;28;20242;-59
2023/12/09 05:49:41;;;;;;;12.83;5.27;;;;;;;6.47;100.00;147798.59;5019709;28;20231;-59
2023/12/09 05:52:07;;;;;;;16.93;5.73;;;;;;;6.47;100.00;147799.88;5009689;28;20224;-59
2023/12/09 05:54:34;;;;;;;6.87;3.33;;;;;;;6.49;100.00;147803.56;5021770;28;20220;-59
2023/12/09 05:57:01;;;;;;;15.90;5.47;;;;;;;6.47;100.00;147799.88;5021149;28;20243;-59
2023/12/09 05:59:27;;;;;;;9.33;3.40;;;;;;;6.47;100.00;147798.59;5025558;28;20232;-58
2023/12/09 06:01:55;;;;;;;12.03;4.23;;;;;;;6.45;100.00;147794.91;5017442;28;20572;-59
2023/12/09 06:04:22;;;;;;;11.80;3.73;;;;;;;6.47;100.00;147798.59;5022363;28;20238;-59
2023/12/09 06:06:49;;;;;;;8.23;3.17;;;;;;;6.45;100.00;147793.63;5019688;28;20242;-59
2023/12/09 06:09:15;;;;;;;17.30;3.53;;;;;;;6.44;100.00;147792.44;5023612;28;20243;-59
2023/12/09 06:11:42;;;;;;;12.47;3.27;;;;;;;6.44;100.00;147791.16;5010561;28;20310;-59
2023/12/09 06:14:08;;;;;;;10.17;3.27;;;;;;;6.42;100.00;147786.19;5023251;28;20240;-59
2023/12/09 06:16:35;;;;;;;12.20;3.27;;;;;;;6.33;100.00;147765.09;5024438;28;20694;-59
2023/12/09 06:19:03;;;;;;;10.27;3.40;;;;;;;6.29;100.00;147756.44;5019452;28;20242;-59
2023/12/09 06:21:30;;;;;;;19.97;9.33;;;;;;;6.31;100.00;147761.41;5021701;28;20231;-58
2023/12/09 06:23:56;;;;;;;10.37;3.23;;;;;;;6.38;100.00;147777.50;5018187;28;20235;-59
2023/12/09 06:26:23;;;;;;;10.57;3.40;;;;;;;6.40;100.00;147781.22;5023805;28;20227;-59
2023/12/09 06:28:50;;;;;;;14.87;5.00;;;;;;;6.41;100.00;147784.97;5019656;28;20224;-58
2023/12/09 06:31:16;;;;;;;11.50;3.57;;;;;;;6.44;100.00;147792.44;5021677;28;20232;-59
2023/12/09 06:33:43;;;;;;;8.67;2.97;;;;;;;6.45;100.00;147793.63;5021079;28;20239;-58
2023/12/09 06:36:11;;;;;;;12.67;4.33;;;;;;;6.50;100.00;147806.06;5023152;28;20224;-58
2023/12/09 06:38:39;;;;;;;10.63;4.00;;;;;;;6.52;100.00;147809.81;5022478;28;20703;-58
2023/12/09 06:41:06;;;;;;;10.23;2.80;;;;;;;6.54;100.00;147814.78;5024659;28;20235;-59
2023/12/09 06:43:33;;;;;;;7.67;3.27;;;;;;;6.55;100.00;147818.47;5021195;28;20235;-59
2023/12/09 06:45:59;;;;;;;8.07;3.80;;;;;;;6.60;100.00;147830.91;5019225;28;20989;-59
2023/12/09 06:48:26;;;;;;;18.13;4.90;;;;;;;6.63;100.00;147838.34;5023119;28;20247;-59
2023/12/09 06:50:53;;;;;;;7.07;3.80;;;;;;;6.69;100.00;147850.78;5022518;28;20235;-59
2023/12/09 06:53:21;;;;;;;7.53;2.70;;;;;;;6.74;100.00;147864.47;5022206;28;20235;-59
2023/12/09 06:55:48;;;;;;;15.17;7.00;;;;;;;6.74;100.00;147863.19;5008082;28;20228;-59
2023/12/09 06:58:16;;;;;;;10.13;5.43;;;;;;;6.72;100.00;147858.22;5023447;28;20621;-59
2023/12/09 07:00:43;;;;;;;8.73;2.30;;;;;;;6.76;100.00;147868.16;5017656;28;20231;-60
2023/12/09 07:03:11;;;;;;;7.93;3.83;;;;;;;6.78;100.00;147874.41;5014210;28;20303;-64
2023/12/09 07:05:37;;;;;;;7.77;2.57;;;;;;;6.85;100.00;147890.53;5016626;28;20228;-59
2023/12/09 07:08:04;;;;;;;15.93;7.00;;;;;;;6.87;100.00;147895.50;5022051;28;20580;-60
2023/12/09 07:10:32;;;;;;;36.70;17.30;;;;;;;6.85;100.00;147890.53;5020969;28;20229;-59
2023/12/09 07:12:59;;;;;;;18.83;5.60;;;;;;;6.89;100.00;147899.25;5016157;28;20239;-60
2023/12/09 07:15:26;;;;;;;13.97;4.83;;;;;;;6.89;100.00;147899.25;5017817;28;20338;-59
2023/12/09 07:17:52;;;;;;;13.97;7.57;;;;;;;6.91;100.00;147905.44;5017766;28;20231;-59
2023/12/09 07:20:19;;;;;;;11.13;4.23;;;;;;;6.88;100.00;147896.78;5016706;28;20228;-59
2023/12/09 07:22:45;;;;;;;9.33;2.37;;;;;;;6.86;100.00;147891.81;5015632;28;20246;-59
2023/12/09 07:25:12;;;;;;;6.73;2.40;;;;;;;6.90;100.00;147901.69;5017597;28;20587;-60
2023/12/09 07:27:40;;;;;;;5.53;2.40;;;;;;;6.92;100.00;147907.94;5016409;28;20231;-59
2023/12/09 07:30:08;;;;;;;8.30;3.93;;;;;;;6.91;100.00;147904.19;5018820;28;20311;-59
2023/12/09 07:32:34;;;;;;;6.47;2.40;;;;;;;6.87;100.00;147895.50;5019087;28;20242;-59
2023/12/09 07:35:01;;;;;;;6.63;2.97;;;;;;;6.86;100.00;147893.03;5016160;28;20224;-59
2023/12/09 07:37:28;;;;;;;4.90;2.37;;;;;;;6.88;100.00;147898.00;5018064;28;20221;-59
2023/12/09 07:39:54;;;;;;;4.93;2.20;;;;;;;6.92;100.00;147906.66;5018213;28;20224;-59
2023/12/09 07:42:20;;;;;;;7.43;1.97;;;;;;;6.93;100.00;147910.41;5020948;28;20232;-59
2023/12/09 07:44:48;;;;;;;17.57;6.07;;;;;;;6.96;100.00;147916.59;5014455;28;20228;-58
2023/12/09 07:47:15;;;;;;;19.13;6.47;;;;;;;6.96;100.00;147915.38;5020318;28;20240;-59
2023/12/09 07:49:42;;;;;;;13.97;6.47;;;;;;;6.96;100.00;147916.59;5014750;28;20243;-59
2023/12/09 07:52:08;;;;;;;13.47;5.03;;;;;;;6.98;100.00;147921.56;5007380;28;20239;-60
2023/12/09 07:54:35;;;;;;;12.07;5.33;;;;;;;7.01;100.00;147927.81;5019655;28;20231;-59
2023/12/09 07:57:02;;;;;;;7.83;3.30;;;;;;;7.02;100.00;147931.50;5016244;28;20315;-59
2023/12/09 07:59:28;;;;;;;8.17;2.97;;;;;;;7.07;100.00;147942.72;5020540;28;20236;-60
2023/12/09 08:01:56;;;;;;;9.52;3.85;;;;;;;7.04;100.00;147936.47;5015569;28;20439;-59
2023/12/09 08:04:23;;;;;;;9.13;3.73;;;;;;;7.05;100.00;147937.75;5008044;28;20232;-58
2023/12/09 08:06:49;;;;;;;12.57;5.60;;;;;;;7.10;100.00;147950.19;5004321;28;20240;-57
2023/12/09 08:09:16;;;;;;;15.07;5.53;;;;;;;7.16;100.00;147965.09;5016865;28;20225;-58
2023/12/09 08:11:42;;;;;;;11.77;6.23;;;;;;;7.22;100.00;147980.00;5013354;28;20305;-58
2023/12/09 08:14:09;;;;;;;11.77;5.90;;;;;;;7.29;100.00;147994.91;5018501;28;20239;-58
2023/12/09 08:16:36;;;;;;;8.90;3.30;;;;;;;7.31;100.00;147999.88;5019810;28;20221;-58
2023/12/09 08:19:04;;;;;;;9.47;3.50;;;;;;;7.39;100.00;148021.00;5015836;28;20237;-58
2023/12/09 08:21:35;;;;;;;10.20;5.67;;;;;;;7.47;100.00;148038.41;5017031;28;20255;-59
2023/12/09 08:24:02;;;;;;;6.63;2.80;;;;;;;7.51;100.00;148049.56;5014807;28;20248;-58
2023/12/09 08:26:29;;;;;;;8.03;4.37;;;;;;;7.48;100.00;148042.09;5018468;28;20299;-58
2023/12/09 08:28:56;;;;;;;9.77;3.17;;;;;;;7.61;100.00;148073.19;5015685;28;20572;-58
2023/12/09 08:31:22;;;;;;;6.87;3.20;;;;;;;7.64;100.00;148080.66;5000106;28;20284;-59
2023/12/09 08:33:49;;;;;;;8.70;3.40;;;;;;;7.79;100.00;148115.47;5015440;28;20232;-58
2023/12/09 08:36:17;;;;;;;7.10;3.17;;;;;;;7.88;100.00;148137.84;5018825;28;20223;-59
2023/12/09 08:38:45;;;;;;;10.47;3.43;;;;;;;7.97;100.00;148160.19;5013334;28;20590;-58
2023/12/09 08:41:12;;;;;;;11.70;6.47;;;;;;;8.03;100.00;148172.59;5018820;28;20236;-59
2023/12/09 08:43:39;;;;;;;16.43;6.50;;;;;;;8.18;100.00;148209.91;5017402;28;20708;-58
2023/12/09 08:46:05;;;;;;;7.70;2.70;;;;;;;8.17;100.00;148206.22;5008513;28;20232;-58
2023/12/09 08:48:32;;;;;;;6.63;2.13;;;;;;;8.11;100.00;148193.78;5015201;28;20220;-59
2023/12/09 08:50:58;;;;;;;62.33;27.83;;;;;;;8.13;100.00;148197.47;5014070;28;20239;-59
2023/12/09 08:53:26;;;;;;;53.23;26.77;;;;;;;8.12;100.00;148196.25;5016076;28;20709;-58
2023/12/09 08:55:53;;;;;;;18.97;12.90;;;;;;;8.15;100.00;148202.47;5003555;28;20229;-57
2023/12/09 08:58:20;;;;;;;7.37;2.90;;;;;;;8.10;100.00;148190.03;5018123;28;20228;-57
2023/12/09 09:00:46;;;;;;;7.93;4.20;;;;;;;7.96;100.00;148157.69;5014791;28;20236;-58
2023/12/09 09:03:13;;;;;;;11.03;2.80;;;;;;;8.02;100.00;148171.41;5020848;28;20220;-59
2023/12/09 09:05:40;;;;;;;1.50;1.10;;;;;;;8.04;100.00;148176.38;5017194;28;20309;-59
2023/12/09 09:08:06;;;;;;;4.93;1.63;;;;;;;8.06;100.00;148180.06;5006405;28;20247;-59
2023/12/09 09:10:34;;;;;;;8.17;2.00;;;;;;;8.00;100.00;148166.41;5019889;28;20251;-59
2023/12/09 09:13:01;;;;;;;2.37;1.50;;;;;;;8.08;100.00;148186.31;5012781;28;20271;-59
2023/12/09 09:15:27;;;;;;;4.20;0.93;;;;;;;8.14;100.00;148199.97;5014726;28;20718;-59
2023/12/09 09:17:54;;;;;;;2.77;0.80;;;;;;;8.16;100.00;148204.94;5012836;28;20244;-59
2023/12/09 09:20:21;;;;;;;3.43;1.40;;;;;;;8.11;100.00;148193.78;5016121;28;20224;-59
2023/12/09 09:22:49;;;;;;;3.10;1.57;;;;;;;8.03;100.00;148172.59;5005023;28;20311;-58
2023/12/09 09:25:16;;;;;;;1.63;0.67;;;;;;;8.08;100.00;148186.31;5017961;28;20301;-59
2023/12/09 09:27:44;;;;;;;5.00;0.93;;;;;;;8.07;99.54;148183.81;5013042;28;20691;-60
2023/12/09 09:30:11;;;;;;;6.33;3.43;;;;;;;8.05;100.00;148178.84;5016710;28;20238;-59
2023/12/09 09:32:38;;;;;;;146.50;7.17;;;;;;;8.13;99.69;148198.75;5016064;28;20241;-60
2023/12/09 09:35:05;;;;;;;3.73;2.40;;;;;;;8.12;99.30;148195.00;5016954;28;20225;-59
2023/12/09 09:37:32;;;;;;;4.87;2.93;;;;;;;8.01;98.08;148168.91;5016952;28;20223;-59
2023/12/09 09:40:01;;;;;;;3.13;1.20;;;;;;;8.11;95.55;148193.78;5013707;28;20326;-58
2023/12/09 09:42:38;;;;;;;7.33;2.83;;;;;;;8.21;96.53;148217.38;5015531;28;20259;-58
2023/12/09 09:45:13;;;;;;;2.60;1.13;;;;;;;8.13;94.12;148198.75;5014056;28;20587;-58
2023/12/09 09:47:42;;;;;;;9.70;0.93;;;;;;;8.11;95.29;148193.78;5003459;28;20220;-58
2023/12/09 09:50:10;;;;;;;6.27;1.67;;;;;;;8.20;94.59;148213.66;5014604;28;20233;-59
2023/12/09 09:52:40;;;;;;;5.90;2.03;;;;;;;8.06;93.89;148181.34;5017426;28;20224;-59
2023/12/09 09:55:09;;;;;;;4.53;1.20;;;;;;;8.00;93.29;148165.16;5013702;28;20244;-57
2023/12/09 09:57:37;;;;;;;5.07;1.47;;;;;;;8.11;93.45;148192.50;5016651;28;20307;-59
2023/12/09 10:00:12;;;;;;;4.97;1.30;;;;;;;8.13;93.28;148198.75;5015534;28;20686;-59
2023/12/09 10:02:42;;;;;;;3.07;1.20;;;;;;;7.94;93.65;148151.50;5012859;28;20235;-59
2023/12/09 10:05:09;;;;;;;3.53;1.30;;;;;;;8.02;94.54;148171.41;5014340;28;20216;-58
2023/12/09 10:07:37;;;;;;;10.20;2.97;;;;;;;7.95;94.20;148153.97;5016712;28;20261;-59
2023/12/09 10:10:05;;;;;;;4.07;1.43;;;;;;;8.07;91.62;148183.81;5013321;28;20236;-58
2023/12/09 10:12:31;;;;;;;5.17;1.37;;;;;;;7.95;90.99;148153.97;5013336;28;20252;-59
2023/12/09 10:14:58;;;;;;;9.20;1.50;;;;;;;8.01;90.31;148167.63;5013297;28;20252;-59
2023/12/09 10:17:25;;;;;;;8.00;1.00;;;;;;;8.01;90.33;148168.91;5004241;28;20227;-59
2023/12/09 10:19:55;;;;;;;2.10;0.90;;;;;;;8.00;91.95;148166.41;5015238;28;20272;-58
2023/12/09 10:22:21;;;;;;;12.90;5.53;;;;;;;8.03;90.44;148172.59;5018196;28;20251;-59
2023/12/09 10:24:49;;;;;;;6.73;1.70;;;;;;;7.97;89.24;148160.19;5013147;28;20221;-59
2023/12/09 10:27:16;;;;;;;11.40;6.83;;;;;;;8.05;90.98;148177.59;5017197;28;20293;-59
2023/12/09 10:29:42;;;;;;;3.37;1.10;;;;;;;7.97;90.15;148160.19;5016434;28;20216;-59
2023/12/09 10:32:09;;;;;;;3.27;1.30;;;;;;;7.99;89.65;148163.94;5011009;28;20360;-60
2023/12/09 10:34:36;;;;;;;10.97;1.47;;;;;;;7.95;91.63;148155.19;5018936;28;20338;-58
2023/12/09 10:37:04;;;;;;;3.90;1.03;;;;;;;8.00;91.26;148165.16;5019850;28;20227;-60
2023/12/09 10:39:32;;;;;;;3.10;1.40;;;;;;;8.02;91.02;148171.41;5020517;28;20307;-59
2023/12/09 10:41:58;;;;;;;6.43;1.33;;;;;;;8.02;90.76;148171.41;5017052;28;20235;-59
2023/12/09 10:44:25;;;;;;;9.90;1.63;;;;;;;8.13;90.10;148197.47;5012506;28;20315;-59
2023/12/09 10:46:51;;;;;;;6.30;1.40;;;;;;;8.18;89.86;148209.91;5014315;28;20224;-59
2023/12/09 10:49:19;;;;;;;4.57;1.77;;;;;;;8.11;90.69;148193.78;5020683;28;20687;-59
2023/12/09 10:51:46;;;;;;;6.23;2.00;;;;;;;8.21;92.23;148216.16;5018799;28;20239;-58
2023/12/09 10:54:14;;;;;;;3.50;1.63;;;;;;;8.13;89.63;148198.75;5008125;28;20228;-59
2023/12/09 10:56:41;;;;;;;3.67;2.07;;;;;;;8.19;90.92;148211.19;5018488;28;20271;-59
2023/12/09 10:59:09;;;;;;;7.37;2.93;;;;;;;8.23;90.05;148222.34;5020363;28;20293;-59
2023/12/09 11:01:36;;;;;;;11.07;1.30;;;;;;;8.21;90.23;148217.38;5019345;28;20583;-59
2023/12/09 11:04:04;;;;;;;1.60;0.93;;;;;;;8.08;91.75;148186.31;5014649;28;20232;-58
2023/12/09 11:06:34;;;;;;;8.57;1.47;;;;;;;8.09;91.12;148187.53;5022587;28;20224;-59
2023/12/09 11:09:03;;;;;;;7.20;2.20;;;;;;;8.04;90.37;148176.38;5014388;28;20247;-60
2023/12/09 11:11:32;;;;;;;4.23;1.60;;;;;;;8.07;91.12;148182.56;5018524;28;20232;-60
2023/12/09 11:13:58;;;;;;;2.93;1.00;;;;;;;8.07;90.66;148182.56;5006403;28;20236;-58
2023/12/09 11:16:28;;;;;;;2.13;1.10;;;;;;;8.09;91.33;148188.81;5017575;28;20226;-60
2023/12/09 11:18:56;;;;;;;2.83;0.90;;;;;;;8.17;90.94;148206.22;5017564;28;20223;-60
2023/12/09 11:21:25;;;;;;;4.07;1.43;;;;;;;8.20;90.00;148213.66;5018106;28;20239;-60
2023/12/09 11:23:53;;;;;;;4.17;2.20;;;;;;;8.39;89.75;148259.66;5012921;28;20219;-60